• Join FlightAware (Why Join?)
  • Login
  • US Flag 
07:40AM EDT


 

Airport Tracker/Info


-or-


 

Live Flight TrackerFlight Track Log ✈ DRS454 ✈ 15-Jul-2013 ✈ KBOS - KBHB

Flight Track Log - Related Links

Times and Time Zones

All times are in EDT time to prevent confusion due to time zone crossing. See the DRS454 flight status page for this flight to view local times or setup timezone preferences in your user account.

Time Position Orientation Groundspeed Altitude Reporting Facility
EDT Latitude Longitude Course Direction KTS MPH feet Rate Location/Type
10:14AM 42.2167 -71.3500 51° Northeast 150 173 9,000  Level KA90
10:15AM 42.2500 -71.3167 37° Northeast 151 174 9,000  Level KA90
10:16AM 42.2833 -71.3000 20° North 149 171 9,000  Level KA90
10:17AM 42.3167 -71.2833 20° North 149 171 9,000  Level KA90
10:18AM 42.3667 -71.2500 26° Northeast 148 170 9,000  Level KA90
10:19AM 42.5650 -70.7362 51° Northeast  Level FlightAware Approximate
10:19AM 42.4000 -71.2333 20° North 149 171 9,000  Level KA90
10:20AM 42.4500 -71.2167 14° North 151 174 9,000  Level KA90
10:21AM 42.4833 -71.1833 36° Northeast 148 170 9,000  Level KA90
10:22AM 42.5167 -71.1667 20° North 150 173 9,000  Level KA90
10:23AM 42.5500 -71.1333 36° Northeast 144 166 9,000  Level KA90
10:24AM 42.5833 -71.1000 36° Northeast 151 174 9,000  Level KA90
10:25AM 42.6167 -71.0500 48° Northeast 154 177 9,000  Level KA90
10:26AM 42.6500 -71.0167 36° Northeast 157 181 9,000  Level KA90
10:27AM 42.6667 -70.9667 66° East 156 180 9,000  Level KA90
10:28AM 42.7000 -70.9333 36° Northeast 154 177 9,000  Level KA90
10:29AM 42.7333 -70.8833 48° Northeast 155 178 9,000  Level KA90
10:30AM 42.7667 -70.8500 36° Northeast 155 178 9,000  Level KA90
10:31AM 42.8000 -70.8000 48° Northeast 156 180 9,000  Level KA90
10:32AM 42.8167 -70.7667 56° Northeast 155 178 9,000  Level KA90
10:33AM 42.8500 -70.7167 48° Northeast 158 182 9,000  Level KA90
10:34AM 42.8833 -70.6833 36° Northeast 157 181 9,000  Level KA90
10:35AM 42.9167 -70.6333 48° Northeast 157 181 9,000  Level KA90
10:36AM 42.9500 -70.5833 48° Northeast 156 180 9,000  Level KA90
10:37AM 42.9667 -70.5500 56° Northeast 156 180 9,000  Level KA90
10:38AM 43.0000 -70.5000 48° Northeast 157 181 9,000  Level KA90
10:40AM 43.0432 -70.4385 46° Northeast  Level Estimated
10:47AM 43.2401 -70.1569 46° Northeast  Level Estimated
10:48AM 43.2682 -70.1165 46° Northeast  Level Estimated
10:49AM 43.2962 -70.0760 46° Northeast  Level Estimated
10:50AM 43.3243 -70.0356 46° Northeast  Level Estimated
10:51AM 43.3523 -69.9951 46° Northeast  Level Estimated
10:52AM 43.3803 -69.9545 46° Northeast  Level Estimated
10:53AM 43.4083 -69.9140 46° Northeast  Level Estimated
10:54AM 43.4363 -69.8734 46° Northeast  Level Estimated
10:55AM 43.4643 -69.8327 47° Northeast  Level Estimated
10:56AM 43.4922 -69.7920 47° Northeast  Level Estimated
10:57AM 43.5201 -69.7513 47° Northeast  Level Estimated
10:58AM 43.5481 -69.7105 47° Northeast  Level Estimated
10:59AM 43.5760 -69.6697 47° Northeast  Level Estimated
11:00AM 43.6039 -69.6289 47° Northeast  Level Estimated
11:01AM 43.6318 -69.5880 47° Northeast  Level Estimated
11:02AM 43.6596 -69.5471 47° Northeast  Level Estimated
11:03AM 43.6875 -69.5061 47° Northeast  Level Estimated
11:04AM 43.7153 -69.4652 47° Northeast  Level Estimated
11:05AM 43.7431 -69.4241 47° Northeast  Level Estimated
11:06AM 43.7710 -69.3831 47° Northeast  Level Estimated
11:07AM 43.7988 -69.3420 47° Northeast  Level Estimated
11:08AM 43.8265 -69.3008 47° Northeast  Level Estimated
11:09AM 43.8543 -69.2596 47° Northeast  Level Estimated
11:10AM 43.8820 -69.2184 47° Northeast  Level Estimated
11:11AM 43.9098 -69.1772 47° Northeast  Level Estimated
11:12AM 43.9375 -69.1359 47° Northeast  Level Estimated
11:13AM 43.9652 -69.0945 47° Northeast  Level Estimated
11:14AM 43.9929 -69.0531 47° Northeast  Level Estimated
11:15AM 44.0206 -69.0117 47° Northeast  Level Estimated
11:16AM 44.0482 -68.9703 47° Northeast  Level Estimated
11:17AM 44.0759 -68.9288 47° Northeast  Level Estimated
11:18AM 44.1035 -68.8873 47° Northeast  Level Estimated
11:19AM 44.1311 -68.8457 47° Northeast  Level Estimated
11:20AM 44.1587 -68.8041 47° Northeast  Level Estimated
11:21AM 44.1863 -68.7624 47° Northeast  Level Estimated
11:22AM 44.2139 -68.7208 47° Northeast  Level Estimated
11:23AM 44.2414 -68.6790 47° Northeast  Level Estimated